Time;durP1;ratioP1;P1;durP2;ratioP2;P2;SDS_P1;SDS_P2;PMS_P1;PMS_P2;Temp;Humidity;BMP_temperature;BMP_pressure;BME280_temperature;BME280_humidity;BME280_pressure;Samples;Min_cycle;Max_cycle;Signal;HPM_P1;HPM_P2
2020/12/12 00:01:08;;;;;;;52.58;26.75;;;;;;;2.88;100.00;98759.38;5210503;28;20026;-80
2020/12/12 00:03:38;;;;;;;51.55;26.40;;;;;;;2.93;100.00;98752.31;5208743;28;20029;-81
2020/12/12 00:06:08;;;;;;;48.83;26.95;;;;;;;2.83;100.00;98750.97;5219548;28;20028;-81
2020/12/12 00:08:39;;;;;;;48.75;25.70;;;;;;;2.83;100.00;98753.53;5209549;28;20029;-81
2020/12/12 00:11:09;;;;;;;55.40;26.90;;;;;;;2.78;100.00;98758.00;5209780;28;20021;-81
2020/12/12 00:13:39;;;;;;;47.00;25.05;;;;;;;2.78;100.00;98756.28;5209234;28;20053;-82
2020/12/12 00:16:10;;;;;;;46.45;25.10;;;;;;;2.84;100.00;98761.22;5210474;28;20033;-80
2020/12/12 00:18:40;;;;;;;46.42;24.55;;;;;;;2.79;100.00;98752.78;5208914;28;20308;-80
2020/12/12 00:21:12;;;;;;;46.42;25.23;;;;;;;2.76;100.00;98762.38;5208874;28;20552;-79
2020/12/12 00:23:42;;;;;;;43.55;23.55;;;;;;;2.78;100.00;98758.00;5208598;28;20036;-81
2020/12/12 00:26:17;;;;;;;48.53;25.17;;;;;;;2.81;100.00;98757.88;5208799;28;20030;-81
2020/12/12 00:28:48;;;;;;;46.33;24.48;;;;;;;2.81;100.00;98757.88;5207995;28;20032;-81
2020/12/12 00:31:19;;;;;;;43.40;24.23;;;;;;;2.77;100.00;98758.88;5209497;28;20055;-81
2020/12/12 00:33:49;;;;;;;47.25;24.42;;;;;;;2.76;100.00;98754.63;5207956;28;20041;-79
2020/12/12 00:36:20;;;;;;;47.63;26.20;;;;;;;2.64;100.00;98779.09;5209524;28;20057;-81
2020/12/12 00:38:50;;;;;;;48.38;25.20;;;;;;;2.70;100.00;98752.25;5209129;28;20021;-79
2020/12/12 00:41:20;;;;;;;44.45;24.40;;;;;;;2.70;100.00;98757.44;5208401;28;20116;-80
2020/12/12 00:43:51;;;;;;;45.08;24.70;;;;;;;2.68;100.00;98752.31;5209113;28;20049;-81
2020/12/12 00:46:21;;;;;;;47.25;25.45;;;;;;;2.61;100.00;98756.00;5208413;28;20459;-81
2020/12/12 00:48:51;;;;;;;42.30;24.60;;;;;;;2.72;100.00;98753.06;5207434;28;20029;-79
2020/12/12 00:51:22;;;;;;;47.80;26.23;;;;;;;2.61;100.00;98752.56;5208077;28;20060;-80
2020/12/12 00:53:52;;;;;;;46.90;27.00;;;;;;;2.59;100.00;98744.88;5208282;28;20029;-82
2020/12/12 00:56:23;;;;;;;46.78;26.27;;;;;;;2.59;100.00;98751.78;5207448;28;20029;-81
2020/12/12 00:58:53;;;;;;;46.88;26.52;;;;;;;2.59;100.00;98744.03;5207126;28;20052;-80
2020/12/12 01:01:23;;;;;;;45.75;25.63;;;;;;;2.58;100.00;98738.06;5208921;28;20060;-80
2020/12/12 01:03:54;;;;;;;46.60;26.48;;;;;;;2.54;100.00;98741.59;5208306;28;20037;-79
2020/12/12 01:06:24;;;;;;;48.97;26.55;;;;;;;2.56;100.00;98751.88;5207463;28;20029;-78
2020/12/12 01:08:54;;;;;;;49.72;26.67;;;;;;;2.44;100.00;98737.66;5208120;28;20021;-79
2020/12/12 01:11:24;;;;;;;52.03;26.75;;;;;;;2.53;100.00;98745.06;5207553;28;20029;-80
2020/12/12 01:13:55;;;;;;;44.63;25.00;;;;;;;2.52;100.00;98745.97;5211013;28;20061;-77
2020/12/12 01:16:25;;;;;;;46.95;25.15;;;;;;;2.56;100.00;98747.56;5197565;28;20033;-79
2020/12/12 01:18:55;;;;;;;47.95;25.75;;;;;;;2.57;100.00;98738.09;5207844;28;20048;-79
2020/12/12 01:21:26;;;;;;;46.28;24.80;;;;;;;2.60;100.00;98744.00;5207409;28;20021;-80
2020/12/12 01:23:56;;;;;;;42.97;24.17;;;;;;;2.61;100.00;98748.25;5207166;28;20018;-81
2020/12/12 01:26:26;;;;;;;47.75;25.50;;;;;;;2.58;100.00;98750.09;5205503;28;20083;-79
2020/12/12 01:28:57;;;;;;;46.63;24.13;;;;;;;2.63;100.00;98743.03;5202842;28;20022;-80
2020/12/12 01:31:27;;;;;;;44.13;23.83;;;;;;;2.59;100.00;98746.63;5203566;28;20696;-79
2020/12/12 01:33:57;;;;;;;41.50;23.45;;;;;;;2.55;100.00;98739.88;5203283;28;20036;-79
2020/12/12 01:36:28;;;;;;;43.85;24.17;;;;;;;2.56;100.00;98741.56;5207363;28;20102;-80
2020/12/12 01:38:58;;;;;;;43.75;23.83;;;;;;;2.61;100.00;98731.94;5203245;28;20487;-80
2020/12/12 01:41:28;;;;;;;40.47;22.73;;;;;;;2.70;100.00;98744.53;5204106;28;20018;-80
2020/12/12 01:43:59;;;;;;;37.60;22.48;;;;;;;2.70;100.00;98742.78;5205498;28;20033;-80
2020/12/12 01:46:31;;;;;;;41.67;22.65;;;;;;;2.66;100.00;98738.63;5206099;28;20029;-81
2020/12/12 01:49:01;;;;;;;42.70;23.48;;;;;;;2.64;100.00;98744.72;5206500;28;20032;-81
2020/12/12 01:51:32;;;;;;;45.65;23.15;;;;;;;2.65;100.00;98749.00;5206099;28;20021;-80
2020/12/12 01:54:03;;;;;;;40.28;22.27;;;;;;;2.66;100.00;98736.03;5206055;28;20032;-80
2020/12/12 01:56:34;;;;;;;39.97;22.35;;;;;;;2.70;100.00;98744.53;5204775;28;20029;-80
2020/12/12 01:59:05;;;;;;;41.33;22.63;;;;;;;2.67;100.00;98747.22;5206273;28;20021;-80
2020/12/12 02:01:38;;;;;;;38.63;21.92;;;;;;;2.67;100.00;98745.47;5206341;28;20032;-81
2020/12/12 02:04:11;;;;;;;38.60;22.58;;;;;;;2.66;100.00;98742.97;5205888;28;20032;-80
2020/12/12 02:06:41;;;;;;;42.08;23.73;;;;;;;2.66;100.00;98740.38;5206489;28;20112;-81
2020/12/12 02:09:13;;;;;;;37.03;21.70;;;;;;;2.71;100.00;98746.22;5205138;28;20120;-80
2020/12/12 02:11:44;;;;;;;39.50;23.17;;;;;;;2.66;100.00;98741.19;5206437;28;20461;-80
2020/12/12 02:14:15;;;;;;;42.50;23.55;;;;;;;2.74;100.00;98743.53;5204858;28;20025;-80
2020/12/12 02:16:56;;;;;;;36.88;21.50;;;;;;;2.76;100.00;98747.75;5208918;28;20059;-80
2020/12/12 02:19:26;;;;;;;36.20;21.52;;;;;;;2.70;100.00;98745.34;5205047;28;20017;-79
2020/12/12 02:22:01;;;;;;;34.72;20.88;;;;;;;2.75;100.00;98737.47;5207783;28;20064;-80
2020/12/12 02:24:33;;;;;;;44.47;21.88;;;;;;;2.76;100.00;98746.88;5212336;28;20029;-80
2020/12/12 02:27:06;;;;;;;34.20;20.95;;;;;;;2.75;100.00;98746.06;5217264;28;20029;-80
2020/12/12 02:29:45;;;;;;;35.35;20.65;;;;;;;2.78;100.00;98742.53;5223025;28;20028;-80
2020/12/12 02:32:15;;;;;;;37.40;21.13;;;;;;;2.76;100.00;98750.31;5222682;28;20031;-79
2020/12/12 02:34:45;;;;;;;36.17;20.40;;;;;;;2.86;100.00;98740.53;5220784;28;20108;-79
2020/12/12 02:37:16;;;;;;;35.47;20.83;;;;;;;2.92;100.00;98736.00;5221481;28;20040;-79
2020/12/12 02:39:46;;;;;;;33.08;20.50;;;;;;;2.96;100.00;98747.03;5219716;28;20033;-80
2020/12/12 02:42:16;;;;;;;34.10;20.05;;;;;;;2.95;100.00;98746.22;5221325;28;20095;-80
2020/12/12 02:44:53;;;;;;;30.50;18.80;;;;;;;3.02;100.00;98747.69;5220490;28;20041;-80
2020/12/12 02:47:24;;;;;;;33.05;19.92;;;;;;;2.92;100.00;98753.22;5220673;28;20025;-80
2020/12/12 02:50:09;;;;;;;33.97;19.45;;;;;;;2.99;100.00;98746.97;5220186;28;20033;-79
2020/12/12 02:52:42;;;;;;;33.63;19.73;;;;;;;3.07;100.00;98750.09;5218855;28;20653;-80
2020/12/12 02:55:13;;;;;;;32.22;19.73;;;;;;;3.03;100.00;98753.69;5212144;28;20034;-80
2020/12/12 02:57:43;;;;;;;33.42;19.55;;;;;;;3.08;100.00;98752.66;5206971;28;20552;-80
2020/12/12 03:00:17;;;;;;;35.03;19.75;;;;;;;3.17;100.00;98749.72;5207855;28;20075;-80
2020/12/12 03:02:47;;;;;;;32.17;20.05;;;;;;;3.15;100.00;98748.94;5209422;28;20129;-80
2020/12/12 03:05:18;;;;;;;31.67;20.02;;;;;;;3.17;100.00;98754.06;5208608;28;20108;-80
2020/12/12 03:07:49;;;;;;;35.42;19.77;;;;;;;3.23;100.00;98753.84;5208304;28;20026;-80
2020/12/12 03:10:19;;;;;;;31.38;19.27;;;;;;;3.22;100.00;98747.00;5208185;28;20029;-80
2020/12/12 03:12:49;;;;;;;32.95;19.80;;;;;;;3.16;100.00;98754.97;5207225;28;20022;-80
2020/12/12 03:15:20;;;;;;;30.00;18.88;;;;;;;3.22;100.00;98757.31;5209153;28;20048;-80
2020/12/12 03:17:50;;;;;;;32.63;20.10;;;;;;;3.22;100.00;98752.16;5209845;28;20025;-80
2020/12/12 03:20:20;;;;;;;33.47;20.05;;;;;;;3.18;100.00;98748.84;5209418;28;20026;-80
2020/12/12 03:22:50;;;;;;;33.63;20.30;;;;;;;3.12;100.00;98753.38;5208196;28;20475;-80
2020/12/12 03:25:21;;;;;;;31.27;19.98;;;;;;;3.11;100.00;98752.53;5208395;28;20088;-81
2020/12/12 03:27:51;;;;;;;34.60;20.60;;;;;;;3.15;100.00;98748.94;5209424;28;20086;-80
2020/12/12 03:30:22;;;;;;;32.72;19.90;;;;;;;3.15;100.00;98755.81;5210999;28;20356;-80
2020/12/12 03:32:52;;;;;;;34.58;19.83;;;;;;;3.00;100.00;98753.81;5209094;28;20025;-80
2020/12/12 03:35:23;;;;;;;34.22;21.02;;;;;;;3.11;100.00;98752.53;5207395;28;20036;-80
2020/12/12 03:37:56;;;;;;;33.58;20.42;;;;;;;3.01;100.00;98758.06;5207669;28;20471;-80
2020/12/12 03:40:26;;;;;;;37.75;21.02;;;;;;;3.09;100.00;98759.50;5204222;28;20581;-80
2020/12/12 03:42:57;;;;;;;36.13;20.75;;;;;;;3.15;100.00;98766.16;5207030;28;20021;-80
2020/12/12 03:45:27;;;;;;;32.50;19.70;;;;;;;3.07;100.00;98770.75;5206768;28;20032;-79
2020/12/12 03:47:57;;;;;;;38.53;21.23;;;;;;;3.06;100.00;98763.91;5206243;28;20124;-80
2020/12/12 03:50:28;;;;;;;34.22;20.20;;;;;;;3.17;100.00;98761.81;5206276;28;20032;-80
2020/12/12 03:52:58;;;;;;;33.70;20.55;;;;;;;3.15;100.00;98755.81;5206887;28;20025;-80
2020/12/12 03:55:28;;;;;;;34.40;20.45;;;;;;;3.19;100.00;98758.25;5205643;28;20116;-80
2020/12/12 03:57:59;;;;;;;35.55;20.73;;;;;;;3.08;100.00;98768.13;5205932;28;20042;-80
2020/12/12 04:00:29;;;;;;;34.40;20.52;;;;;;;3.09;100.00;98758.63;5205591;28;20476;-80
2020/12/12 04:02:59;;;;;;;33.85;20.45;;;;;;;3.12;100.00;98763.69;5205872;28;20060;-80
2020/12/12 04:05:29;;;;;;;35.25;20.95;;;;;;;3.10;100.00;98766.34;5205150;28;20026;-80
2020/12/12 04:08:00;;;;;;;38.40;21.45;;;;;;;3.12;100.00;98759.38;5206980;28;20100;-80
2020/12/12 04:10:30;;;;;;;33.20;20.67;;;;;;;3.12;100.00;98761.97;5204875;28;20029;-80
2020/12/12 04:13:00;;;;;;;36.03;21.08;;;;;;;3.06;100.00;98756.16;5205854;28;20033;-79
2020/12/12 04:15:31;;;;;;;37.85;21.45;;;;;;;3.09;100.00;98754.34;5206940;28;20033;-80
2020/12/12 04:18:02;;;;;;;36.40;22.00;;;;;;;3.09;100.00;98758.63;5206311;28;20158;-80
2020/12/12 04:20:32;;;;;;;34.50;21.38;;;;;;;3.11;100.00;98754.25;5206750;28;20026;-80
2020/12/12 04:23:02;;;;;;;34.95;21.27;;;;;;;3.10;100.00;98765.47;5205067;28;20487;-80
2020/12/12 04:25:32;;;;;;;32.40;20.38;;;;;;;3.06;100.00;98756.16;5205095;28;20033;-80
2020/12/12 04:28:03;;;;;;;36.90;22.73;;;;;;;3.02;100.00;98755.41;5205138;28;20486;-80
2020/12/12 04:30:33;;;;;;;33.38;21.38;;;;;;;3.04;100.00;98757.97;5205582;28;20025;-80
2020/12/12 04:33:03;;;;;;;36.58;22.92;;;;;;;3.02;100.00;98758.00;5205913;28;20524;-80
2020/12/12 04:35:34;;;;;;;36.00;22.13;;;;;;;3.15;100.00;98755.81;5206343;28;20025;-80
2020/12/12 04:38:04;;;;;;;36.30;22.20;;;;;;;3.10;100.00;98753.44;5205517;28;20116;-80
2020/12/12 04:40:35;;;;;;;37.15;22.02;;;;;;;3.06;100.00;98753.59;5203574;28;20029;-79
2020/12/12 04:43:06;;;;;;;37.22;22.73;;;;;;;3.12;100.00;98761.09;5205939;28;20026;-80
2020/12/12 04:45:38;;;;;;;36.88;21.60;;;;;;;3.08;100.00;98752.66;5203687;28;20465;-80
2020/12/12 04:48:09;;;;;;;36.35;21.50;;;;;;;3.11;100.00;98739.63;5205111;28;20048;-79
2020/12/12 04:50:39;;;;;;;36.17;21.63;;;;;;;3.16;100.00;98744.66;5204819;28;20029;-80
2020/12/12 04:53:16;;;;;;;38.30;23.05;;;;;;;3.10;100.00;98742.25;5204888;28;20026;-80
2020/12/12 04:55:50;;;;;;;37.03;20.75;;;;;;;3.11;100.00;98749.09;5205419;28;20053;-80
2020/12/12 04:58:26;;;;;;;36.42;21.55;;;;;;;3.13;100.00;98747.31;5203897;28;20021;-80
2020/12/12 05:00:57;;;;;;;38.63;23.05;;;;;;;3.08;100.00;98747.50;5204985;28;20060;-80
2020/12/12 05:03:27;;;;;;;35.63;21.90;;;;;;;3.08;100.00;98751.78;5205744;28;20030;-80
2020/12/12 05:05:57;;;;;;;37.45;22.45;;;;;;;3.05;100.00;98746.75;5205048;28;20040;-79
2020/12/12 05:08:28;;;;;;;36.85;22.42;;;;;;;3.04;100.00;98755.38;5205574;28;20021;-80
2020/12/12 05:11:02;;;;;;;38.70;23.52;;;;;;;3.07;100.00;98752.69;5204777;28;20033;-80
2020/12/12 05:13:33;;;;;;;38.88;23.38;;;;;;;3.06;100.00;98754.41;5203207;28;20068;-80
2020/12/12 05:16:03;;;;;;;40.08;23.63;;;;;;;3.14;100.00;98756.72;5204674;28;20474;-79
2020/12/12 05:18:34;;;;;;;38.22;23.77;;;;;;;3.12;100.00;98759.38;5204410;28;20017;-80
2020/12/12 05:21:05;;;;;;;37.90;23.17;;;;;;;3.15;100.00;98758.41;5204180;28;20112;-79
2020/12/12 05:23:35;;;;;;;34.85;23.02;;;;;;;3.09;100.00;98758.63;5203632;28;20030;-79
2020/12/12 05:26:06;;;;;;;37.58;22.42;;;;;;;3.06;100.00;98764.72;5203692;28;20155;-80
2020/12/12 05:28:37;;;;;;;38.25;23.67;;;;;;;3.08;100.00;98767.28;5203258;28;20030;-79
2020/12/12 05:31:09;;;;;;;39.53;24.42;;;;;;;3.12;100.00;98767.13;5204781;28;20411;-79
2020/12/12 05:33:39;;;;;;;35.85;23.20;;;;;;;3.09;100.00;98767.22;5203066;28;20025;-80
2020/12/12 05:36:11;;;;;;;37.17;22.50;;;;;;;3.08;100.00;98775.88;5203505;28;20027;-80
2020/12/12 05:38:41;;;;;;;38.42;23.20;;;;;;;3.13;100.00;98766.22;5204114;28;20022;-80
2020/12/12 05:41:11;;;;;;;33.72;21.48;;;;;;;3.14;100.00;98767.91;5202656;28;20022;-80
2020/12/12 05:43:42;;;;;;;41.25;22.10;;;;;;;3.17;100.00;98777.28;5204602;28;20039;-79
2020/12/12 05:46:13;;;;;;;34.60;22.05;;;;;;;3.25;100.00;98776.13;5204063;28;20032;-80
2020/12/12 05:48:43;;;;;;;36.05;22.92;;;;;;;3.19;100.00;98776.31;5203462;28;20097;-80
2020/12/12 05:51:14;;;;;;;35.50;22.75;;;;;;;3.28;100.00;98770.00;5204263;28;20026;-80
2020/12/12 05:53:46;;;;;;;34.45;21.38;;;;;;;3.26;100.00;98776.94;5203102;28;20041;-80
2020/12/12 05:56:17;;;;;;;35.30;22.20;;;;;;;3.20;100.00;98777.19;5203396;28;20032;-80
2020/12/12 05:58:48;;;;;;;35.92;22.60;;;;;;;3.24;100.00;98783.91;5203145;28;20104;-80
2020/12/12 06:01:21;;;;;;;36.45;22.40;;;;;;;3.21;100.00;98784.03;5204872;28;20029;-80
2020/12/12 06:04:10;;;;;;;34.30;22.23;;;;;;;3.16;100.00;98773.03;5203085;28;20025;-80
2020/12/12 06:06:45;;;;;;;32.72;22.05;;;;;;;3.22;100.00;98770.22;5203522;28;20022;-79
2020/12/12 06:09:15;;;;;;;;;;;;;;;3.19;100.00;98775.50;5204974;28;20032;-79
2020/12/12 06:11:47;;;;;;;35.60;21.30;;;;;;;3.19;100.00;98778.06;5204279;28;19969;-80
2020/12/12 06:14:19;;;;;;;34.33;22.10;;;;;;;3.19;100.00;98770.34;5203114;28;20022;-80
2020/12/12 06:16:49;;;;;;;33.50;21.60;;;;;;;3.24;100.00;98768.41;5204276;28;20072;-80
2020/12/12 06:19:25;;;;;;;32.53;21.20;;;;;;;3.22;100.00;98776.22;5205145;28;20045;-80
2020/12/12 06:21:55;;;;;;;35.10;22.05;;;;;;;3.23;100.00;98774.47;5205068;28;20017;-79
2020/12/12 06:24:26;;;;;;;33.28;21.77;;;;;;;3.31;100.00;98783.63;5204468;28;20039;-79
2020/12/12 06:26:59;;;;;;;30.15;21.35;;;;;;;3.27;100.00;98776.06;5204911;28;20032;-80
2020/12/12 06:29:40;;;;;;;32.35;20.77;;;;;;;3.26;100.00;98782.13;5204033;28;20029;-80
2020/12/12 06:32:15;;;;;;;34.50;22.10;;;;;;;3.28;100.00;98788.06;5204619;28;20096;-80
2020/12/12 06:34:48;;;;;;;34.17;21.80;;;;;;;3.22;100.00;98789.09;5203817;28;20032;-79
2020/12/12 06:37:27;;;;;;;32.70;21.20;;;;;;;3.27;100.00;98794.13;5204981;28;20348;-80
2020/12/12 06:39:59;;;;;;;32.67;21.58;;;;;;;3.38;100.00;98789.44;5203734;28;20021;-80
2020/12/12 06:42:31;;;;;;;31.63;20.77;;;;;;;3.36;100.00;98798.97;5201867;28;20029;-80
2020/12/12 06:45:17;;;;;;;30.23;20.63;;;;;;;3.39;100.00;98798.84;5196369;28;20025;-79
2020/12/12 06:47:50;;;;;;;31.42;20.05;;;;;;;3.41;100.00;98804.81;5204485;28;20029;-80
2020/12/12 06:50:23;;;;;;;29.60;19.70;;;;;;;3.49;100.00;98805.38;5202766;28;20033;-79
2020/12/12 06:52:53;;;;;;;27.92;19.83;;;;;;;3.42;100.00;98796.16;5202309;28;20069;-80
2020/12/12 06:55:25;;;;;;;28.42;19.73;;;;;;;3.42;100.00;98809.06;5202433;28;20076;-80
2020/12/12 06:57:58;;;;;;;32.17;20.15;;;;;;;3.41;100.00;98802.22;5204265;28;20025;-80
2020/12/12 07:00:32;;;;;;;30.58;19.08;;;;;;;3.54;100.00;98808.66;5202176;28;20027;-80
2020/12/12 07:03:05;;;;;;;28.35;18.15;;;;;;;3.51;100.00;98813.91;5203903;28;20445;-80
2020/12/12 07:05:37;;;;;;;28.45;19.30;;;;;;;3.48;100.00;98808.84;5202451;28;20475;-80
2020/12/12 07:08:10;;;;;;;29.55;19.33;;;;;;;3.50;100.00;98818.22;5204307;28;20514;-80
2020/12/12 07:10:42;;;;;;;28.15;19.15;;;;;;;3.55;100.00;98816.31;5205836;28;20017;-80
2020/12/12 07:13:13;;;;;;;28.58;19.38;;;;;;;3.58;100.00;98817.06;5206851;28;20624;-80
2020/12/12 07:15:44;;;;;;;29.92;19.75;;;;;;;3.51;100.00;98816.50;5207141;28;20120;-80
2020/12/12 07:18:14;;;;;;;29.95;19.80;;;;;;;3.58;100.00;98822.22;5207461;28;20125;-80
2020/12/12 07:20:48;;;;;;;27.38;18.88;;;;;;;3.56;100.00;98832.66;5207852;28;20030;-80
2020/12/12 07:23:18;;;;;;;27.95;19.35;;;;;;;3.47;100.00;98828.66;5206189;28;20056;-80
2020/12/12 07:25:48;;;;;;;27.80;18.95;;;;;;;3.57;100.00;98834.34;5207274;28;20040;-79
2020/12/12 07:28:19;;;;;;;29.23;18.83;;;;;;;3.52;100.00;98834.50;5207369;28;20033;-80
2020/12/12 07:30:49;;;;;;;28.20;19.38;;;;;;;3.51;100.00;98837.16;5206395;28;20091;-80
2020/12/12 07:33:19;;;;;;;30.50;19.90;;;;;;;3.52;100.00;98831.09;5206514;28;20032;-80
2020/12/12 07:35:50;;;;;;;31.25;20.42;;;;;;;3.51;100.00;98843.16;5205582;28;20021;-80
2020/12/12 07:38:20;;;;;;;30.55;20.40;;;;;;;3.47;100.00;98848.47;5206402;28;20079;-80
2020/12/12 07:40:51;;;;;;;32.35;21.08;;;;;;;3.52;100.00;98854.34;5206906;28;20031;-80
2020/12/12 07:43:21;;;;;;;32.20;21.45;;;;;;;3.58;100.00;98853.22;5207187;28;20030;-80
2020/12/12 07:46:09;;;;;;;31.25;20.85;;;;;;;3.62;100.00;98859.94;5206036;28;20578;-80
2020/12/12 07:48:39;;;;;;;31.38;21.20;;;;;;;3.59;100.00;98865.22;5207105;28;20045;-80
2020/12/12 07:51:13;;;;;;;33.13;21.60;;;;;;;3.59;100.00;98867.81;5219403;28;20028;-80
2020/12/12 07:53:44;;;;;;;31.20;20.90;;;;;;;3.63;100.00;98866.78;5215732;28;20023;-80
2020/12/12 07:56:15;;;;;;;30.05;20.35;;;;;;;3.64;100.00;98860.72;5214903;28;20112;-80
2020/12/12 07:59:01;;;;;;;30.52;20.02;;;;;;;3.76;100.00;98857.72;5214304;28;20510;-80
2020/12/12 08:01:32;;;;;;;31.42;20.65;;;;;;;3.72;100.00;98851.00;5207590;28;20029;-80
2020/12/12 08:04:02;;;;;;;32.95;21.27;;;;;;;3.78;100.00;98865.44;5206229;28;20032;-80
2020/12/12 08:06:32;;;;;;;27.88;19.30;;;;;;;3.82;100.00;98862.66;5207104;28;20029;-80
2020/12/12 08:09:03;;;;;;;27.05;18.27;;;;;;;3.88;100.00;98872.78;5206025;28;20029;-79
2020/12/12 08:11:35;;;;;;;29.58;19.65;;;;;;;3.96;100.00;98881.09;5204787;28;20025;-80
2020/12/12 08:14:06;;;;;;;30.27;20.17;;;;;;;4.02;100.00;98880.88;5204933;28;20044;-80
2020/12/12 08:19:09;;;;;;;26.92;19.33;;;;;;;4.10;100.00;98885.78;5212225;28;20068;-77
2020/12/12 08:21:39;;;;;;;27.50;19.20;;;;;;;3.97;100.00;98893.09;5210214;28;20041;-78
2020/12/12 08:24:09;;;;;;;27.23;19.13;;;;;;;4.09;100.00;98902.19;5206568;28;20034;-78
2020/12/12 08:26:40;;;;;;;28.05;19.13;;;;;;;3.99;100.00;98891.31;5206984;28;20025;-78
2020/12/12 08:29:10;;;;;;;30.52;19.58;;;;;;;4.07;100.00;98901.38;5206405;28;20045;-78
2020/12/12 08:31:41;;;;;;;28.65;19.92;;;;;;;3.99;100.00;98906.81;5206716;28;20033;-78
2020/12/12 08:34:18;;;;;;;28.85;19.55;;;;;;;4.03;100.00;98905.81;5209770;28;20032;-77
2020/12/12 08:36:48;;;;;;;29.35;19.33;;;;;;;4.11;100.00;98911.53;5185583;28;20029;-78
2020/12/12 08:39:25;;;;;;;29.77;20.02;;;;;;;4.25;100.00;98908.44;5184615;28;20506;-78
2020/12/12 08:41:55;;;;;;;27.50;19.13;;;;;;;4.21;100.00;98907.75;5184530;28;20041;-78
2020/12/12 08:44:25;;;;;;;31.98;20.50;;;;;;;4.14;100.00;98920.94;5205274;28;20114;-77
2020/12/12 08:46:56;;;;;;;31.55;20.52;;;;;;;4.15;100.00;98920.88;5207874;28;20025;-78
2020/12/12 08:49:26;;;;;;;29.15;20.05;;;;;;;4.22;100.00;98918.91;5209666;28;20574;-77
2020/12/12 08:51:56;;;;;;;34.63;21.38;;;;;;;4.29;100.00;98925.56;5205963;28;20032;-78
2020/12/12 08:54:26;;;;;;;31.63;20.73;;;;;;;4.20;100.00;98926.72;5215944;28;20028;-78
2020/12/12 08:57:09;;;;;;;29.27;20.10;;;;;;;4.19;100.00;98937.13;5196792;28;20087;-78
2020/12/12 08:59:40;;;;;;;31.83;21.20;;;;;;;4.24;100.00;98933.47;5207216;28;20017;-78
2020/12/12 09:02:17;;;;;;;31.17;21.10;;;;;;;4.32;100.00;98931.44;5204851;28;20088;-78
2020/12/12 09:05:05;;;;;;;31.60;21.60;;;;;;;4.44;100.00;98933.56;5204912;28;20030;-78
2020/12/12 09:07:36;;;;;;;31.38;21.00;;;;;;;4.34;100.00;98932.25;5204851;28;20144;-78
2020/12/12 09:10:12;;;;;;;30.55;20.55;;;;;;;4.51;100.00;98942.81;5206013;28;20034;-78
2020/12/12 09:12:46;;;;;;;32.42;21.45;;;;;;;4.49;100.00;98954.91;5213651;28;20045;-78
2020/12/12 09:15:16;;;;;;;29.20;19.88;;;;;;;4.61;100.00;98949.31;5203949;28;20021;-78
2020/12/12 09:17:59;;;;;;;30.23;20.23;;;;;;;4.60;100.00;98957.13;5210284;28;20033;-78
2020/12/12 09:20:29;;;;;;;31.70;20.55;;;;;;;4.69;100.00;98965.41;5207496;28;20071;-77
2020/12/12 09:22:59;;;;;;;29.50;20.67;;;;;;;4.82;100.00;98958.00;5207550;28;20359;-78
2020/12/12 09:25:30;;;;;;;31.23;20.55;;;;;;;4.87;100.00;98962.09;5207081;28;20029;-78
2020/12/12 09:28:00;;;;;;;30.38;20.23;;;;;;;4.97;100.00;98968.59;5208105;28;20051;-77
2020/12/12 09:30:30;;;;;;;31.90;20.48;;;;;;;4.94;100.00;98970.47;5207372;28;20025;-78
2020/12/12 09:33:00;;;;;;;29.15;19.58;;;;;;;5.04;100.00;98969.19;5207221;28;20036;-78
2020/12/12 09:35:31;;;;;;;30.08;19.92;;;;;;;5.24;100.00;98970.09;5208547;28;20025;-78
2020/12/12 09:38:01;;;;;;;28.27;19.45;;;;;;;5.22;100.00;98969.31;5209947;28;20032;-78
2020/12/12 09:40:31;;;;;;;26.60;18.25;;;;;;;5.20;100.00;98971.13;5212507;28;20267;-78
2020/12/12 09:43:01;;;;;;;25.98;17.70;;;;;;;5.19;100.00;98969.41;5211006;28;20037;-78
2020/12/12 09:45:32;;;;;;;27.67;18.08;;;;;;;5.14;100.00;98979.13;5211586;28;20178;-78
2020/12/12 09:48:02;;;;;;;27.13;18.77;;;;;;;5.22;100.00;98977.09;5200223;28;20029;-78
2020/12/12 09:50:35;;;;;;;27.52;19.17;;;;;;;5.17;100.00;98970.41;5208205;28;20103;-78
2020/12/12 09:53:07;;;;;;;29.95;18.85;;;;;;;5.17;100.00;98979.00;5212623;28;20032;-78
2020/12/12 09:55:40;;;;;;;26.58;19.40;;;;;;;5.14;100.00;98981.72;5217562;28;20104;-78
2020/12/12 09:58:10;;;;;;;27.92;19.17;;;;;;;5.24;100.00;98984.78;5199921;28;20059;-78
2020/12/12 10:00:41;;;;;;;28.25;19.33;;;;;;;5.19;100.00;98984.94;5218073;28;20054;-78
2020/12/12 10:03:11;;;;;;;28.73;19.77;;;;;;;5.30;100.00;98980.19;5219678;28;20033;-78
2020/12/12 10:05:42;;;;;;;28.75;19.90;;;;;;;5.40;100.00;98986.72;5228444;28;20039;-78
2020/12/12 10:08:12;;;;;;;28.60;19.45;;;;;;;5.38;100.00;98985.94;5211999;28;20041;-78
2020/12/12 10:10:43;;;;;;;28.05;19.10;;;;;;;5.40;100.00;98986.72;5217256;28;20048;-78
2020/12/12 10:13:13;;;;;;;29.15;20.40;;;;;;;5.33;100.00;98993.03;5210261;28;20032;-78
2020/12/12 10:15:43;;;;;;;29.88;20.15;;;;;;;5.49;100.00;98994.09;5213426;28;20656;-78
2020/12/12 10:18:14;;;;;;;30.77;20.02;;;;;;;5.37;100.00;98993.75;5213998;28;20060;-78
2020/12/12 10:20:45;;;;;;;31.23;20.05;;;;;;;5.55;100.00;98999.06;5212527;28;20025;-78
2020/12/12 10:23:15;;;;;;;29.52;20.27;;;;;;;5.62;100.00;99000.47;5216147;28;20033;-78
2020/12/12 10:25:46;;;;;;;33.15;21.42;;;;;;;5.55;100.00;98999.06;5215904;28;20020;-78
2020/12/12 10:28:17;;;;;;;33.75;20.08;;;;;;;5.63;100.00;99004.75;5214345;28;20048;-78
2020/12/12 10:30:48;;;;;;;32.22;22.23;;;;;;;5.57;100.00;99002.41;5215547;28;20044;-78
2020/12/12 10:33:18;;;;;;;35.33;22.13;;;;;;;5.54;100.00;99003.38;5215334;28;20040;-78
2020/12/12 10:35:49;;;;;;;32.33;22.55;;;;;;;5.45;100.00;99002.91;5212077;28;20367;-77
2020/12/12 10:38:20;;;;;;;33.22;22.27;;;;;;;5.40;100.00;99007.44;5215418;28;20036;-77
2020/12/12 10:41:12;;;;;;;33.42;22.73;;;;;;;5.39;100.00;99005.75;5217742;28;20020;-77
2020/12/12 10:43:42;;;;;;;36.15;23.80;;;;;;;5.32;100.00;99008.66;5200018;28;20080;-78
2020/12/12 10:46:12;;;;;;;36.25;24.08;;;;;;;5.33;100.00;99005.97;5201976;28;20457;-78
2020/12/12 10:48:42;;;;;;;36.63;25.23;;;;;;;5.36;100.00;99005.84;5220023;28;20088;-77
2020/12/12 10:51:16;;;;;;;38.40;24.48;;;;;;;5.38;100.00;99010.97;5203208;28;20025;-78
2020/12/12 10:53:48;;;;;;;35.50;24.50;;;;;;;5.49;100.00;99013.09;5220045;28;20025;-78
2020/12/12 10:56:19;;;;;;;36.95;25.45;;;;;;;5.42;100.00;99015.97;5216949;28;20030;-78
2020/12/12 10:58:49;;;;;;;33.15;22.95;;;;;;;5.44;100.00;99012.41;5216904;28;20029;-78
2020/12/12 11:01:20;;;;;;;35.78;23.90;;;;;;;5.40;100.00;99015.22;5198124;28;20021;-78
2020/12/12 11:03:50;;;;;;;35.17;22.85;;;;;;;5.39;100.00;99014.34;5201356;28;20028;-78
2020/12/12 11:06:20;;;;;;;34.10;23.17;;;;;;;5.38;100.00;99022.19;5220343;28;20505;-79
2020/12/12 11:08:50;;;;;;;34.38;23.02;;;;;;;5.47;100.00;99020.09;5220973;28;20044;-76
2020/12/12 11:11:21;;;;;;;38.08;24.70;;;;;;;5.29;100.00;99021.72;5221002;28;20040;-79
2020/12/12 11:13:51;;;;;;;37.75;24.70;;;;;;;5.46;100.00;99020.13;5219971;28;20032;-80
2020/12/12 11:16:22;;;;;;;33.92;24.08;;;;;;;5.33;100.00;99018.91;5210274;28;20109;-79
2020/12/12 11:18:53;;;;;;;34.05;22.95;;;;;;;5.41;100.00;99028.06;5213483;28;20029;-78
2020/12/12 11:21:24;;;;;;;34.85;23.60;;;;;;;5.42;100.00;99018.56;5211638;28;20108;-79
2020/12/12 11:23:55;;;;;;;33.75;23.40;;;;;;;5.36;100.00;99023.97;5212357;28;20029;-79
2020/12/12 11:26:26;;;;;;;37.45;23.58;;;;;;;5.34;100.00;99025.78;5212635;28;20057;-78
2020/12/12 11:28:56;;;;;;;36.65;25.27;;;;;;;5.42;100.00;99021.16;5210586;28;20653;-80
2020/12/12 11:31:26;;;;;;;36.25;25.08;;;;;;;5.42;100.00;99029.75;5205850;28;20124;-79
2020/12/12 11:34:12;;;;;;;36.72;23.88;;;;;;;5.55;100.00;99025.78;5211267;28;20082;-79
2020/12/12 11:36:55;;;;;;;36.42;24.27;;;;;;;5.40;100.00;99031.56;5213125;28;20036;-78
2020/12/12 11:47:35;;;;;;;35.42;24.50;;;;;;;5.52;100.00;99040.59;5224229;28;20025;-79